Richmond's Hourly Summary for Saturday, March 18, 2017
Hour Temp
(f)
RH
(%)
Solar Rad.
(MJ/m2)
Rainfall
(in)
Wind
(mph)
3/18/2017 12:00 AM 64 91 0 0 3.48
3/18/2017 1:00 AM 63 94 0 0 3.98
3/18/2017 2:00 AM 63 96 0 0 4.49
3/18/2017 3:00 AM 62 96 0 0 3.96
3/18/2017 4:00 AM 62 97 0 0 4.07
3/18/2017 5:00 AM 62 97 0 0 2.35
3/18/2017 6:00 AM 62 98 0 0 1.34
3/18/2017 7:00 AM 61 99 0 0 2.18
3/18/2017 8:00 AM 61 99 0.04 0 1.39
3/18/2017 9:00 AM 64 99 0.27 0 1.88
3/18/2017 10:00 AM 69 87 0.87 0 4.79
3/18/2017 11:00 AM 74 75 2 0 6.83
3/18/2017 12:00 PM 76 65 1.64 0 5.7
3/18/2017 1:00 PM 78 53 1.97 0 2.87
3/18/2017 2:00 PM 81 48 2.52 0 3.49
3/18/2017 3:00 PM 83 45 3.07 0 5.61
3/18/2017 4:00 PM 84 41 2.58 0 5.41
3/18/2017 5:00 PM 83 44 2.16 0 10.03
3/18/2017 6:00 PM 80 55 0.75 0 11.2
3/18/2017 7:00 PM 78 59 0.24 0 9.25
3/18/2017 8:00 PM 76 63 0.05 0 9.41
3/18/2017 9:00 PM 72 72 0 0 5.28
3/18/2017 10:00 PM 70 78 0 0 4.94
3/18/2017 11:00 PM 67 84 0 0 3.4
Data Summary 70 76 18.16 0.00 4.89